createdAt,value
2023-03-13T00:02:21.254Z,0.76
2023-03-13T00:04:53.454Z,0.76
2023-03-13T00:07:34.298Z,0.74
2023-03-13T00:10:18.266Z,0.72
2023-03-13T00:12:45.288Z,0.70
2023-03-13T00:15:17.548Z,0.71
2023-03-13T00:17:50.581Z,0.69
2023-03-13T00:20:19.197Z,0.68
2023-03-13T00:22:52.690Z,0.69
2023-03-13T00:25:20.767Z,0.69
2023-03-13T00:27:50.240Z,0.69
2023-03-13T00:30:22.536Z,0.68
2023-03-13T00:32:56.067Z,0.66
2023-03-13T00:35:28.676Z,0.66
2023-03-13T00:37:55.772Z,0.65
2023-03-13T00:40:27.488Z,0.62
2023-03-13T00:42:54.586Z,0.58
2023-03-13T00:45:21.546Z,0.54
2023-03-13T00:47:53.916Z,0.53
2023-03-13T00:50:21.274Z,0.50
2023-03-13T00:52:48.327Z,0.47
2023-03-13T00:55:15.584Z,0.47
2023-03-13T00:57:43.294Z,0.47
2023-03-13T01:00:15.619Z,0.44
2023-03-13T01:02:49.979Z,0.42
2023-03-13T01:05:17.902Z,0.40
2023-03-13T01:07:44.916Z,0.38
2023-03-13T01:10:16.931Z,0.36
2023-03-13T01:12:49.384Z,0.36
2023-03-13T01:15:19.202Z,0.38
2023-03-13T01:17:49.298Z,0.39
2023-03-13T01:20:16.830Z,0.38
2023-03-13T01:22:43.882Z,0.36
2023-03-13T01:25:16.686Z,0.34
2023-03-13T01:27:43.653Z,0.31
2023-03-13T01:30:11.838Z,0.29
2023-03-13T01:32:40.189Z,0.26
2023-03-13T01:35:09.295Z,0.24
2023-03-13T01:37:38.313Z,0.24
2023-03-13T01:40:06.163Z,0.23
2023-03-13T01:42:50.819Z,0.21
2023-03-13T01:45:49.446Z,0.24
2023-03-13T01:48:19.143Z,0.22
2023-03-13T01:50:49.132Z,0.19
2023-03-13T01:53:30.149Z,0.18
2023-03-13T01:56:05.182Z,0.18
2023-03-13T01:58:32.598Z,0.17
2023-03-13T02:01:00.145Z,0.16
2023-03-13T02:03:39.290Z,0.14
2023-03-13T02:06:07.458Z,0.12
2023-03-13T02:08:42.250Z,0.09
2023-03-13T02:11:18.762Z,0.06
2023-03-13T02:13:48.698Z,0.05
2023-03-13T02:16:15.950Z,0.06
2023-03-13T02:18:54.094Z,0.07
2023-03-13T02:21:55.381Z,0.02
2023-03-13T02:24:34.946Z,0.01
2023-03-13T02:27:02.534Z,0.01
2023-03-13T02:29:34.063Z,-0.01
2023-03-13T02:32:01.590Z,-0.01
2023-03-13T02:34:34.021Z,-0.01
2023-03-13T02:37:02.055Z,-0.00
2023-03-13T02:39:29.903Z,-0.05
2023-03-13T02:41:57.870Z,-0.09
2023-03-13T02:44:30.551Z,-0.07
2023-03-13T02:46:58.288Z,-0.10
2023-03-13T02:49:29.721Z,-0.09
2023-03-13T02:52:05.542Z,-0.10
2023-03-13T02:54:34.541Z,-0.11
2023-03-13T02:57:07.307Z,-0.09
2023-03-13T02:59:34.204Z,-0.07
2023-03-13T03:02:01.899Z,-0.07
2023-03-13T03:04:29.632Z,-0.07
2023-03-13T03:06:56.687Z,-0.07
2023-03-13T03:09:23.976Z,-0.08
2023-03-13T03:11:52.940Z,-0.12
2023-03-13T03:14:20.317Z,-0.12
2023-03-13T03:16:48.216Z,-0.10
2023-03-13T03:19:15.233Z,-0.11
2023-03-13T03:21:44.147Z,-0.10
2023-03-13T03:24:11.128Z,-0.11
2023-03-13T03:26:38.309Z,-0.12
2023-03-13T03:29:15.496Z,-0.14
2023-03-13T03:31:43.869Z,-0.13
2023-03-13T03:34:17.678Z,-0.15
2023-03-13T03:36:46.690Z,-0.15
2023-03-13T03:39:13.821Z,-0.13
2023-03-13T03:41:40.873Z,-0.13
2023-03-13T03:44:08.119Z,-0.14
2023-03-13T03:47:12.772Z,-0.16
2023-03-13T03:49:47.405Z,-0.15
2023-03-13T03:52:14.966Z,-0.19
2023-03-13T03:54:44.742Z,-0.19
2023-03-13T03:57:12.656Z,-0.18
2023-03-13T03:59:39.753Z,-0.18
2023-03-13T04:02:09.020Z,-0.17
2023-03-13T04:04:41.547Z,-0.16
2023-03-13T04:07:18.418Z,-0.15
2023-03-13T04:09:50.792Z,-0.18
2023-03-13T04:12:34.668Z,-0.15
2023-03-13T04:15:01.578Z,-0.12
2023-03-13T04:17:29.101Z,-0.08
2023-03-13T04:19:56.292Z,-0.06
2023-03-13T04:22:26.920Z,-0.08
2023-03-13T04:25:02.914Z,-0.08
2023-03-13T04:27:32.199Z,-0.09
2023-03-13T04:29:59.203Z,-0.08
2023-03-13T04:33:05.887Z,-0.07
2023-03-13T04:35:50.072Z,-0.06
2023-03-13T04:38:27.818Z,-0.04
2023-03-13T04:41:28.542Z,0.01
2023-03-13T04:44:25.060Z,0.07
2023-03-13T04:47:23.825Z,0.11
2023-03-13T04:50:11.685Z,0.15
2023-03-13T04:53:00.893Z,0.16
2023-03-13T04:55:41.495Z,0.19
2023-03-13T04:58:27.774Z,0.22
2023-03-13T05:01:11.662Z,0.24
2023-03-13T05:03:58.431Z,0.22
2023-03-13T05:06:51.004Z,0.24
2023-03-13T05:09:50.995Z,0.26
2023-03-13T05:12:36.902Z,0.28
2023-03-13T05:15:33.004Z,0.31
2023-03-13T05:18:14.377Z,0.33
2023-03-13T05:21:06.358Z,0.37
2023-03-13T05:23:36.577Z,0.42
2023-03-13T05:26:22.256Z,0.45
2023-03-13T05:29:20.741Z,0.43
2023-03-13T05:32:20.776Z,0.43
2023-03-13T05:34:59.566Z,0.43
2023-03-13T05:37:46.913Z,0.45
2023-03-13T05:40:32.601Z,0.54
2023-03-13T05:43:18.718Z,0.57
2023-03-13T05:46:10.893Z,0.56
2023-03-13T05:48:54.823Z,0.62
2023-03-13T05:51:49.752Z,0.70
2023-03-13T05:54:28.083Z,0.74
2023-03-13T05:57:23.176Z,0.80
2023-03-13T06:00:03.228Z,0.86
2023-03-13T06:03:05.279Z,0.96
2023-03-13T06:05:39.394Z,1.01
2023-03-13T06:08:14.038Z,1.06
2023-03-13T06:10:41.167Z,1.09
2023-03-13T06:13:19.322Z,1.15
2023-03-13T06:15:52.764Z,1.21
2023-03-13T06:18:37.447Z,1.26
2023-03-13T06:21:04.530Z,1.27
2023-03-13T06:23:31.861Z,1.30
2023-03-13T06:25:59.701Z,1.58
2023-03-13T06:28:31.451Z,1.95
2023-03-13T06:31:00.899Z,2.28
2023-03-13T06:33:28.178Z,2.49
2023-03-13T06:35:57.049Z,2.67
2023-03-13T06:38:24.713Z,2.75
2023-03-13T06:40:51.508Z,2.52
2023-03-13T06:43:22.360Z,2.41
2023-03-13T06:45:49.284Z,2.33
2023-03-13T06:48:16.417Z,2.28
2023-03-13T06:50:43.258Z,2.30
2023-03-13T06:53:13.819Z,2.31
2023-03-13T06:55:40.674Z,2.26
2023-03-13T06:58:07.431Z,2.29
2023-03-13T07:00:34.586Z,2.33
2023-03-13T07:03:01.536Z,2.38
2023-03-13T07:05:28.609Z,2.44
2023-03-13T07:07:55.744Z,2.49
2023-03-13T07:10:26.158Z,2.52
2023-03-13T07:12:54.199Z,2.68
2023-03-13T07:15:22.868Z,3.01
2023-03-13T07:17:51.871Z,3.27
2023-03-13T07:20:19.500Z,3.55
2023-03-13T07:22:50.382Z,3.58
2023-03-13T07:25:17.812Z,3.55
2023-03-13T07:27:44.888Z,3.54
2023-03-13T07:30:11.813Z,3.54
2023-03-13T07:32:39.114Z,3.56
2023-03-13T07:35:06.599Z,3.56
2023-03-13T07:37:33.722Z,3.62
2023-03-13T07:40:01.308Z,3.70
2023-03-13T07:42:28.392Z,3.79
2023-03-13T07:44:55.580Z,3.90
2023-03-13T07:47:22.442Z,4.00
2023-03-13T07:49:49.399Z,4.08
2023-03-13T07:52:17.500Z,4.14
2023-03-13T07:54:45.940Z,4.23
2023-03-13T07:57:12.781Z,4.30
2023-03-13T07:59:39.658Z,4.46
2023-03-13T08:02:08.575Z,4.53
2023-03-13T08:04:35.412Z,4.61
2023-03-13T08:07:02.224Z,4.78
2023-03-13T08:09:31.623Z,4.90
2023-03-13T08:11:58.389Z,4.99
2023-03-13T08:14:25.252Z,5.06
2023-03-13T08:16:52.537Z,5.20
2023-03-13T08:19:19.373Z,5.34
2023-03-13T08:21:47.233Z,5.47
2023-03-13T08:24:14.276Z,5.52
2023-03-13T08:26:41.207Z,5.59
2023-03-13T08:29:14.561Z,5.76
2023-03-13T08:31:43.201Z,6.15
2023-03-13T08:34:13.506Z,6.55
2023-03-13T08:36:40.840Z,6.67
2023-03-13T08:39:15.270Z,6.66
2023-03-13T08:41:42.059Z,6.74
2023-03-13T08:44:10.250Z,6.81
2023-03-13T08:46:37.203Z,7.14
2023-03-13T08:49:04.344Z,7.61
2023-03-13T08:51:32.470Z,8.17
2023-03-13T08:53:59.353Z,8.56
2023-03-13T08:56:29.940Z,8.86
2023-03-13T08:59:01.207Z,9.41
2023-03-13T09:01:30.263Z,9.94
2023-03-13T09:03:58.932Z,10.38
2023-03-13T09:06:27.434Z,10.89
2023-03-13T09:08:55.830Z,11.17
2023-03-13T09:11:22.651Z,11.47
2023-03-13T09:13:54.791Z,11.90
2023-03-13T09:16:22.496Z,12.42
2023-03-13T09:18:50.252Z,12.99
2023-03-13T09:21:18.864Z,13.49
2023-03-13T09:23:47.625Z,13.61
2023-03-13T09:26:14.669Z,13.84
2023-03-13T09:28:43.463Z,14.10
2023-03-13T09:31:14.666Z,14.58
2023-03-13T09:33:46.650Z,15.03
2023-03-13T09:36:14.051Z,15.42
2023-03-13T09:38:40.868Z,15.51
2023-03-13T09:41:16.931Z,15.70
2023-03-13T09:43:47.693Z,16.01
2023-03-13T09:46:20.663Z,16.29
2023-03-13T09:48:51.138Z,16.58
2023-03-13T09:51:30.472Z,16.75
2023-03-13T09:53:57.309Z,16.77
2023-03-13T09:56:24.901Z,16.87
2023-03-13T09:58:56.882Z,17.28
2023-03-13T10:01:26.025Z,17.63
2023-03-13T10:03:57.971Z,17.80
2023-03-13T10:06:24.901Z,17.74
2023-03-13T10:08:52.977Z,17.70
2023-03-13T10:11:26.227Z,17.83
2023-03-13T10:13:56.214Z,17.94
2023-03-13T10:16:25.347Z,18.01
2023-03-13T10:18:53.511Z,18.39
2023-03-13T10:21:21.150Z,18.41
2023-03-13T10:24:00.269Z,18.94
2023-03-13T10:26:28.537Z,19.63
2023-03-13T10:28:55.960Z,20.01
2023-03-13T10:31:23.249Z,20.28
2023-03-13T10:33:51.148Z,20.59
2023-03-13T10:36:19.308Z,20.90
2023-03-13T10:38:52.987Z,21.30
2023-03-13T10:41:46.907Z,21.62
2023-03-13T10:44:21.236Z,21.57
2023-03-13T10:46:48.682Z,21.47
2023-03-13T10:49:19.805Z,21.29
2023-03-13T10:51:52.366Z,21.30
2023-03-13T10:54:22.296Z,21.23
2023-03-13T10:56:49.731Z,21.23
2023-03-13T10:59:23.873Z,21.26
2023-03-13T11:01:51.283Z,21.43
2023-03-13T11:04:38.417Z,21.68
2023-03-13T11:07:19.330Z,21.59
2023-03-13T11:10:09.238Z,21.28
2023-03-13T11:12:39.049Z,21.48
2023-03-13T11:15:06.521Z,21.73
2023-03-13T11:17:38.535Z,22.16
2023-03-13T11:20:20.786Z,22.05
2023-03-13T11:22:50.406Z,21.23
2023-03-13T11:25:38.865Z,21.21
2023-03-13T11:28:14.997Z,21.16
2023-03-13T11:30:42.329Z,21.04
2023-03-13T11:33:17.704Z,21.44
2023-03-13T11:35:49.757Z,21.78
2023-03-13T11:38:36.210Z,21.97
2023-03-13T11:41:09.869Z,22.17
2023-03-13T11:43:40.795Z,22.20
2023-03-13T11:46:09.246Z,21.82
2023-03-13T11:48:36.445Z,21.32
2023-03-13T11:51:25.130Z,21.01
2023-03-13T11:54:11.151Z,20.73
2023-03-13T11:56:39.392Z,20.65
2023-03-13T11:59:06.367Z,20.70
2023-03-13T12:01:46.912Z,20.69
2023-03-13T12:04:22.995Z,21.22
2023-03-13T12:07:07.546Z,21.11
2023-03-13T12:09:45.341Z,20.86
2023-03-13T12:12:15.812Z,21.01
2023-03-13T12:14:58.281Z,21.26
2023-03-13T12:17:34.130Z,21.10
2023-03-13T12:20:07.221Z,20.68
2023-03-13T12:22:46.395Z,20.62
2023-03-13T12:25:27.878Z,20.94
2023-03-13T12:28:00.488Z,21.48
2023-03-13T12:30:36.874Z,21.73
2023-03-13T12:33:24.240Z,21.72
2023-03-13T12:36:10.077Z,21.22
2023-03-13T12:38:38.816Z,21.54
2023-03-13T12:41:19.299Z,21.70
2023-03-13T12:44:08.455Z,21.46
2023-03-13T12:46:38.399Z,21.42
2023-03-13T12:49:12.382Z,21.46
2023-03-13T12:52:02.686Z,21.47
2023-03-13T12:54:51.828Z,21.71
2023-03-13T12:57:21.365Z,21.87
2023-03-13T12:59:55.265Z,22.07
2023-03-13T13:02:23.308Z,22.23
2023-03-13T13:04:50.427Z,21.65
2023-03-13T13:07:23.925Z,21.15
2023-03-13T13:10:04.472Z,21.48
2023-03-13T13:12:32.169Z,22.14
2023-03-13T13:15:03.525Z,22.60
2023-03-13T13:17:39.056Z,22.88
2023-03-13T13:20:26.028Z,23.05
2023-03-13T13:23:18.401Z,23.12
2023-03-13T13:25:45.318Z,22.34
2023-03-13T13:28:21.454Z,21.90
2023-03-13T13:30:49.012Z,21.82
2023-03-13T13:33:27.542Z,21.23
2023-03-13T13:36:09.947Z,20.42
2023-03-13T13:38:42.979Z,20.04
2023-03-13T13:41:11.448Z,20.03
2023-03-13T13:43:41.732Z,20.25
2023-03-13T13:46:28.879Z,20.64
2023-03-13T13:49:06.183Z,20.67
2023-03-13T13:51:36.677Z,20.57
2023-03-13T13:54:12.437Z,20.69
2023-03-13T13:56:43.537Z,20.78
2023-03-13T13:59:20.173Z,20.65
2023-03-13T14:01:47.702Z,20.55
2023-03-13T14:04:27.525Z,20.65
2023-03-13T14:06:54.563Z,20.92
2023-03-13T14:09:31.272Z,20.55
2023-03-13T14:12:01.231Z,20.46
2023-03-13T14:14:29.227Z,20.22
2023-03-13T14:16:56.767Z,20.08
2023-03-13T14:19:23.689Z,19.94
2023-03-13T14:21:57.702Z,19.54
2023-03-13T14:24:26.463Z,19.39
2023-03-13T14:26:53.462Z,19.52
2023-03-13T14:29:25.536Z,19.44
2023-03-13T14:31:59.013Z,19.29
2023-03-13T14:34:32.681Z,18.77
2023-03-13T14:37:16.786Z,18.25
2023-03-13T14:39:45.034Z,17.62
2023-03-13T14:42:13.102Z,17.42
2023-03-13T14:44:42.500Z,17.25
2023-03-13T14:47:26.894Z,17.13
2023-03-13T14:49:58.850Z,17.05
2023-03-13T14:52:32.624Z,16.74
2023-03-13T14:55:28.455Z,16.41
2023-03-13T14:58:03.171Z,16.13
2023-03-13T15:00:34.741Z,15.68
2023-03-13T15:03:16.326Z,15.29
2023-03-13T15:05:46.427Z,14.90
2023-03-13T15:08:14.405Z,14.71
2023-03-13T15:10:42.780Z,14.50
2023-03-13T15:13:24.613Z,14.28
2023-03-13T15:15:51.786Z,14.13
2023-03-13T15:18:27.294Z,14.05
2023-03-13T15:20:55.400Z,13.91
2023-03-13T15:23:22.098Z,13.76
2023-03-13T15:25:49.598Z,13.11
2023-03-13T15:28:17.450Z,12.18
2023-03-13T15:30:48.076Z,11.56
2023-03-13T15:33:16.154Z,11.30
2023-03-13T15:35:43.039Z,10.89
2023-03-13T15:38:14.352Z,10.24
2023-03-13T15:40:41.160Z,9.90
2023-03-13T15:43:08.757Z,9.84
2023-03-13T15:45:36.450Z,9.72
2023-03-13T15:48:25.339Z,9.37
2023-03-13T15:50:52.727Z,8.90
2023-03-13T15:53:21.009Z,8.61
2023-03-13T15:55:49.811Z,8.49
2023-03-13T15:58:16.844Z,8.37
2023-03-13T16:00:48.521Z,8.23
2023-03-13T16:03:16.754Z,8.14
2023-03-13T16:05:43.562Z,8.10
2023-03-13T16:08:15.126Z,7.97
2023-03-13T16:10:42.455Z,7.80
2023-03-13T16:13:15.516Z,7.64
2023-03-13T16:15:43.786Z,7.53
2023-03-13T16:18:21.216Z,7.44
2023-03-13T16:20:52.549Z,7.28
2023-03-13T16:23:21.332Z,7.17
2023-03-13T16:25:48.591Z,7.12
2023-03-13T16:28:22.569Z,7.13
2023-03-13T16:30:49.462Z,7.08
2023-03-13T16:33:19.326Z,7.04
2023-03-13T16:35:47.393Z,6.94
2023-03-13T16:38:14.837Z,6.86
2023-03-13T16:40:43.641Z,6.78
2023-03-13T16:43:16.592Z,6.69
2023-03-13T16:45:43.893Z,6.55
2023-03-13T16:48:12.937Z,6.51
2023-03-13T16:50:44.831Z,6.49
2023-03-13T16:53:11.794Z,6.38
2023-03-13T16:55:43.979Z,6.34
2023-03-13T16:58:11.471Z,6.34
2023-03-13T17:00:38.613Z,6.22
2023-03-13T17:03:05.538Z,6.12
2023-03-13T17:05:32.754Z,6.06
2023-03-13T17:07:59.582Z,6.00
2023-03-13T17:10:27.791Z,5.96
2023-03-13T17:12:54.915Z,5.90
2023-03-13T17:15:25.008Z,5.82
2023-03-13T17:17:53.564Z,5.77
2023-03-13T17:20:24.236Z,5.78
2023-03-13T17:23:05.732Z,5.79
2023-03-13T17:25:34.497Z,5.78
2023-03-13T17:28:01.658Z,5.77
2023-03-13T17:30:32.306Z,5.74
2023-03-13T17:33:00.294Z,5.66
2023-03-13T17:35:29.359Z,5.55
2023-03-13T17:37:56.148Z,5.50
2023-03-13T17:40:27.266Z,5.49
2023-03-13T17:42:55.831Z,5.46
2023-03-13T17:45:22.626Z,5.40
2023-03-13T17:47:49.806Z,5.44
2023-03-13T17:50:18.135Z,5.47
2023-03-13T17:52:53.162Z,5.50
2023-03-13T17:55:19.932Z,5.53
2023-03-13T17:57:47.805Z,5.53
2023-03-13T18:00:17.950Z,5.54
2023-03-13T18:02:45.095Z,5.56
2023-03-13T18:05:12.403Z,5.53
2023-03-13T18:07:43.704Z,5.52
2023-03-13T18:10:17.622Z,5.51
2023-03-13T18:12:45.476Z,5.44
2023-03-13T18:15:12.717Z,5.39
2023-03-13T18:17:43.250Z,5.37
2023-03-13T18:20:14.383Z,5.35
2023-03-13T18:22:41.845Z,5.32
2023-03-13T18:25:11.364Z,5.30
2023-03-13T18:27:38.537Z,5.26
2023-03-13T18:30:11.866Z,5.20
2023-03-13T18:32:39.854Z,5.12
2023-03-13T18:35:07.074Z,5.08
2023-03-13T18:37:34.774Z,5.04
2023-03-13T18:40:01.823Z,5.05
2023-03-13T18:42:28.911Z,5.00
2023-03-13T18:44:55.705Z,4.91
2023-03-13T18:47:26.673Z,4.91
2023-03-13T18:49:55.044Z,4.94
2023-03-13T18:52:21.839Z,4.91
2023-03-13T18:54:51.371Z,4.83
2023-03-13T18:57:18.571Z,4.74
2023-03-13T18:59:45.266Z,4.67
2023-03-13T19:02:13.429Z,4.63
2023-03-13T19:04:41.069Z,4.63
2023-03-13T19:07:15.193Z,4.65
2023-03-13T19:09:44.748Z,4.68
2023-03-13T19:12:14.977Z,4.67
2023-03-13T19:14:42.085Z,4.64
2023-03-13T19:17:19.785Z,4.62
2023-03-13T19:19:47.711Z,4.65
2023-03-13T19:22:14.535Z,4.67
2023-03-13T19:24:41.317Z,4.66
2023-03-13T19:27:10.180Z,4.62
2023-03-13T19:29:37.090Z,4.58
2023-03-13T19:32:06.679Z,4.57
2023-03-13T19:34:33.831Z,4.56
2023-03-13T19:37:05.784Z,4.59
2023-03-13T19:39:39.308Z,4.58
2023-03-13T19:42:07.265Z,4.52
2023-03-13T19:44:36.242Z,4.54
2023-03-13T19:47:04.161Z,4.50
2023-03-13T19:49:31.490Z,4.41
2023-03-13T19:51:59.653Z,4.34
2023-03-13T19:54:26.886Z,4.29
2023-03-13T19:56:55.686Z,4.26
2023-03-13T19:59:23.503Z,4.20
2023-03-13T20:01:50.938Z,4.13
2023-03-13T20:04:17.787Z,4.07
2023-03-13T20:06:45.144Z,4.03
2023-03-13T20:09:19.482Z,3.98
2023-03-13T20:11:46.306Z,3.92
2023-03-13T20:14:16.382Z,3.84
2023-03-13T20:16:46.951Z,3.77
2023-03-13T20:19:14.093Z,3.65
2023-03-13T20:21:42.442Z,3.59
2023-03-13T20:24:09.469Z,3.56
2023-03-13T20:26:36.293Z,3.55
2023-03-13T20:29:03.074Z,3.55
2023-03-13T20:31:31.044Z,3.50
2023-03-13T20:34:00.885Z,3.43
2023-03-13T20:36:27.916Z,3.38
2023-03-13T20:38:54.880Z,3.41
2023-03-13T20:41:25.312Z,3.43
2023-03-13T20:43:52.528Z,3.39
2023-03-13T20:46:19.958Z,3.33
2023-03-13T20:48:47.512Z,3.23
2023-03-13T20:51:15.797Z,3.17
2023-03-13T20:53:45.168Z,3.15
2023-03-13T20:56:12.180Z,3.15
2023-03-13T20:58:40.544Z,3.12
2023-03-13T21:01:07.594Z,3.02
2023-03-13T21:03:36.130Z,2.97
2023-03-13T21:06:13.978Z,2.93
2023-03-13T21:08:41.754Z,2.90
2023-03-13T21:11:11.008Z,2.85
2023-03-13T21:13:38.866Z,2.81
2023-03-13T21:16:06.328Z,2.83
2023-03-13T21:18:34.474Z,2.83
2023-03-13T21:21:06.133Z,2.85
2023-03-13T21:23:38.561Z,2.81
2023-03-13T21:26:06.004Z,2.74
2023-03-13T21:28:33.375Z,2.71
2023-03-13T21:31:08.151Z,2.72
2023-03-13T21:33:35.118Z,2.67
2023-03-13T21:36:04.094Z,2.67
2023-03-13T21:38:31.330Z,2.67
2023-03-13T21:40:58.777Z,2.66
2023-03-13T21:43:27.737Z,2.62
2023-03-13T21:45:58.972Z,2.58
2023-03-13T21:48:27.168Z,2.54
2023-03-13T21:50:54.156Z,2.51
2023-03-13T21:53:27.371Z,2.48
2023-03-13T21:55:54.558Z,2.50
2023-03-13T21:58:21.740Z,2.51
2023-03-13T22:00:48.853Z,2.49
2023-03-13T22:03:16.170Z,2.47
2023-03-13T22:05:43.432Z,2.41
2023-03-13T22:08:10.818Z,2.35
2023-03-13T22:10:38.116Z,2.24
2023-03-13T22:13:09.034Z,2.15
2023-03-13T22:15:36.553Z,2.13
2023-03-13T22:18:05.465Z,2.12
2023-03-13T22:20:32.353Z,2.10
2023-03-13T22:23:04.883Z,2.02
2023-03-13T22:25:33.441Z,1.98
2023-03-13T22:28:05.486Z,1.92
2023-03-13T22:30:32.288Z,1.90
2023-03-13T22:32:59.334Z,1.93
2023-03-13T22:35:31.584Z,1.93
2023-03-13T22:38:04.281Z,1.94
2023-03-13T22:40:37.873Z,1.98
2023-03-13T22:43:04.645Z,1.96
2023-03-13T22:45:34.102Z,1.92
2023-03-13T22:48:05.843Z,1.89
2023-03-13T22:50:34.037Z,1.89
2023-03-13T22:53:01.675Z,1.88
2023-03-13T22:55:33.225Z,1.86
2023-03-13T22:58:05.514Z,1.85
2023-03-13T23:00:32.649Z,1.80
2023-03-13T23:03:01.256Z,1.77
2023-03-13T23:05:28.332Z,1.79
2023-03-13T23:07:55.203Z,1.76
2023-03-13T23:10:22.382Z,1.73
2023-03-13T23:12:49.328Z,1.72
2023-03-13T23:15:17.454Z,1.73
2023-03-13T23:17:45.071Z,1.73
2023-03-13T23:20:13.394Z,1.75
2023-03-13T23:22:50.195Z,1.74
2023-03-13T23:25:18.314Z,1.73
2023-03-13T23:27:50.589Z,1.71
2023-03-13T23:30:19.550Z,1.69
2023-03-13T23:32:48.735Z,1.64
2023-03-13T23:35:24.183Z,1.59
2023-03-13T23:37:54.322Z,1.57
2023-03-13T23:40:22.393Z,1.59
2023-03-13T23:42:50.046Z,1.57
2023-03-13T23:45:17.706Z,1.53
2023-03-13T23:47:47.316Z,1.51
2023-03-13T23:50:21.532Z,1.47
2023-03-13T23:53:00.354Z,1.50
2023-03-13T23:55:27.401Z,1.50
2023-03-13T23:58:01.134Z,1.48
